createdAt,value
2019-04-25T00:01:46.353Z,98046.68
2019-04-25T00:04:21.566Z,98034.25
2019-04-25T00:06:53.984Z,98031.02
2019-04-25T00:09:28.648Z,98037.45
2019-04-25T00:12:02.270Z,98029.67
2019-04-25T00:14:34.502Z,98023.02
2019-04-25T00:17:07.502Z,98021.69
2019-04-25T00:19:40.735Z,98029.28
2019-04-25T00:22:51.515Z,98022.42
2019-04-25T00:25:44.473Z,98031.28
2019-04-25T00:28:15.198Z,98021.12
2019-04-25T00:30:47.968Z,98025.20
2019-04-25T00:33:21.577Z,98022.84
2019-04-25T00:35:53.652Z,98016.57
2019-04-25T00:38:25.656Z,98017.34
2019-04-25T00:40:57.628Z,98018.84
2019-04-25T00:43:31.359Z,98013.52
2019-04-25T00:46:04.013Z,98011.62
2019-04-25T00:48:35.963Z,98007.44
2019-04-25T00:51:07.947Z,98009.72
2019-04-25T00:53:40.033Z,98006.67
2019-04-25T00:56:12.102Z,98002.95
2019-04-25T00:58:51.317Z,98015.03
2019-04-25T01:01:33.101Z,98017.49
2019-04-25T01:04:05.126Z,98020.16
2019-04-25T01:06:37.073Z,98025.59
2019-04-25T01:09:13.806Z,98028.55
2019-04-25T01:11:45.962Z,98028.38
2019-04-25T01:14:18.078Z,98025.22
2019-04-25T01:16:51.248Z,98029.98
2019-04-25T01:19:24.454Z,98021.91
2019-04-25T01:21:56.542Z,98024.84
2019-04-25T01:24:28.891Z,98023.51
2019-04-25T01:27:01.340Z,98021.80
2019-04-25T01:29:33.528Z,98024.95
2019-04-25T01:32:08.072Z,98023.52
2019-04-25T01:35:00.479Z,98025.23
2019-04-25T01:37:57.575Z,98028.74
2019-04-25T01:40:53.083Z,98026.86
2019-04-25T01:43:37.486Z,98032.56
2019-04-25T01:46:10.873Z,98036.35
2019-04-25T01:48:43.394Z,98033.91
2019-04-25T01:51:15.548Z,98033.14
2019-04-25T01:53:49.003Z,98029.33
2019-04-25T01:56:21.277Z,98037.50
2019-04-25T01:58:53.890Z,98036.38
2019-04-25T02:01:26.872Z,98036.38
2019-04-25T02:03:59.056Z,98035.61
2019-04-25T02:06:31.374Z,98040.76
2019-04-25T02:09:05.291Z,98035.05
2019-04-25T02:11:58.914Z,98035.16
2019-04-25T02:14:31.574Z,98038.28
2019-04-25T02:17:04.522Z,98044.75
2019-04-25T02:19:36.724Z,98043.49
2019-04-25T02:22:09.326Z,98047.20
2019-04-25T02:24:41.292Z,98039.14
2019-04-25T02:27:13.635Z,98045.58
2019-04-25T02:29:45.778Z,98042.91
2019-04-25T02:32:17.955Z,98041.12
2019-04-25T02:34:50.269Z,98033.63
2019-04-25T02:37:22.279Z,98037.11
2019-04-25T02:39:57.210Z,98042.99
2019-04-25T02:42:28.378Z,98043.19
2019-04-25T02:45:10.110Z,98034.44
2019-04-25T02:48:05.683Z,98039.86
2019-04-25T02:50:46.173Z,98033.31
2019-04-25T02:53:37.299Z,98027.21
2019-04-25T02:56:26.336Z,98029.85
2019-04-25T02:58:44.271Z,98023.20
2019-04-25T03:01:22.771Z,98015.98
2019-04-25T03:03:54.359Z,98021.02
2019-04-25T03:06:25.807Z,98007.81
2019-04-25T03:09:00.222Z,98014.53
2019-04-25T03:11:34.557Z,98013.30
2019-04-25T03:14:09.500Z,98013.13
2019-04-25T03:16:40.653Z,98011.41
2019-04-25T03:19:46.542Z,98011.80
2019-04-25T03:22:21.589Z,98008.94
2019-04-25T03:24:55.098Z,98007.98
2019-04-25T03:27:27.144Z,98010.92
2019-04-25T03:29:59.738Z,98012.74
2019-04-25T03:32:31.801Z,98010.54
2019-04-25T03:35:05.549Z,98006.27
2019-04-25T03:37:37.465Z,98013.11
2019-04-25T03:40:11.716Z,98006.07
2019-04-25T03:42:44.376Z,98003.60
2019-04-25T03:45:16.329Z,97992.80
2019-04-25T03:47:48.376Z,98003.82
2019-04-25T03:50:20.656Z,97999.53
2019-04-25T03:52:54.051Z,98007.81
2019-04-25T03:55:26.309Z,98003.83
2019-04-25T03:57:58.268Z,98014.67
2019-04-25T04:00:30.519Z,98012.52
2019-04-25T04:03:05.720Z,98010.04
2019-04-25T04:05:36.448Z,98004.61
2019-04-25T04:08:08.629Z,98008.80
2019-04-25T04:10:40.759Z,98007.91
2019-04-25T04:13:14.603Z,98016.02
2019-04-25T04:15:46.536Z,98012.16
2019-04-25T04:18:34.954Z,98015.42
2019-04-25T04:21:33.999Z,98010.14
2019-04-25T04:24:11.868Z,98018.10
2019-04-25T04:26:45.531Z,98007.66
2019-04-25T04:29:17.458Z,98002.55
2019-04-25T04:31:49.484Z,98006.14
2019-04-25T04:34:21.478Z,98003.12
2019-04-25T04:36:53.770Z,98003.92
2019-04-25T04:39:27.920Z,98008.75
2019-04-25T04:42:00.436Z,98006.45
2019-04-25T04:44:34.177Z,98012.13
2019-04-25T04:47:06.134Z,98013.98
2019-04-25T04:49:38.153Z,98013.44
2019-04-25T04:52:11.412Z,98020.66
2019-04-25T04:54:43.983Z,98009.64
2019-04-25T04:57:26.653Z,98020.59
2019-04-25T04:59:49.964Z,98016.69
2019-04-25T05:02:30.515Z,98030.87
2019-04-25T05:05:24.826Z,98022.89
2019-04-25T05:08:00.343Z,98024.88
2019-04-25T05:10:33.298Z,98025.24
2019-04-25T05:13:05.489Z,98015.62
2019-04-25T05:15:37.455Z,98018.72
2019-04-25T05:18:09.490Z,98011.95
2019-04-25T05:20:41.583Z,98016.63
2019-04-25T05:23:15.734Z,98011.03
2019-04-25T05:25:47.243Z,98010.05
2019-04-25T05:28:19.570Z,98003.36
2019-04-25T05:31:07.761Z,98012.79
2019-04-25T05:33:40.576Z,98009.14
2019-04-25T05:36:14.983Z,98019.99
2019-04-25T05:38:46.346Z,98023.88
2019-04-25T05:41:44.234Z,98024.17
2019-04-25T05:44:16.939Z,98030.47
2019-04-25T05:46:49.026Z,98033.03
2019-04-25T05:49:21.378Z,98034.16
2019-04-25T05:51:53.887Z,98045.02
2019-04-25T05:54:26.880Z,98030.91
2019-04-25T05:56:59.105Z,98033.96
2019-04-25T05:59:31.105Z,98032.58
2019-04-25T06:02:03.903Z,98030.98
2019-04-25T06:04:37.506Z,98039.85
2019-04-25T06:07:09.950Z,98031.95
2019-04-25T06:10:00.859Z,98030.88
2019-04-25T06:12:53.530Z,98023.21
2019-04-25T06:15:28.718Z,98032.17
2019-04-25T06:18:32.431Z,98024.28
2019-04-25T06:21:06.396Z,98022.67
2019-04-25T06:23:55.929Z,98028.02
2019-04-25T06:26:36.100Z,98031.22
2019-04-25T06:29:03.171Z,98027.41
2019-04-25T06:31:35.392Z,98031.48
2019-04-25T06:34:07.520Z,98039.47
2019-04-25T06:36:39.916Z,98037.19
2019-04-25T06:39:11.909Z,98042.66
2019-04-25T06:41:44.233Z,98041.48
2019-04-25T06:44:35.424Z,98042.42
2019-04-25T06:47:32.290Z,98025.38
2019-04-25T06:50:04.379Z,98042.20
2019-04-25T06:52:36.364Z,98043.09
2019-04-25T06:55:10.930Z,98053.81
2019-04-25T06:57:44.155Z,98042.78
2019-04-25T07:00:17.535Z,98054.72
2019-04-25T07:02:49.539Z,98050.23
2019-04-25T07:05:30.576Z,98052.72
2019-04-25T07:07:56.834Z,98035.28
2019-04-25T07:10:29.458Z,98049.27
2019-04-25T07:13:01.650Z,98043.17
2019-04-25T07:15:34.198Z,98049.13
2019-04-25T07:18:07.459Z,98056.02
2019-04-25T07:20:39.459Z,98052.34
2019-04-25T07:23:11.440Z,98053.08
2019-04-25T07:25:48.607Z,98052.45
2019-04-25T07:28:48.768Z,98053.58
2019-04-25T07:31:33.463Z,98046.28
2019-04-25T07:34:10.743Z,98063.45
2019-04-25T07:36:42.704Z,98058.81
2019-04-25T07:39:15.086Z,98049.96
2019-04-25T07:41:47.144Z,98051.66
2019-04-25T07:44:22.029Z,98051.95
2019-04-25T07:46:54.200Z,98044.32
2019-04-25T07:49:26.856Z,98048.20
2019-04-25T07:51:58.949Z,98039.20
2019-04-25T07:54:30.995Z,98043.36
2019-04-25T07:57:03.642Z,98042.16
2019-04-25T07:59:36.383Z,98039.98
2019-04-25T08:02:08.610Z,98045.89
2019-04-25T08:04:40.936Z,98038.84
2019-04-25T08:07:14.238Z,98043.71
2019-04-25T08:09:46.476Z,98049.95
2019-04-25T08:12:18.419Z,98043.65
2019-04-25T08:14:55.487Z,98052.64
2019-04-25T08:17:45.543Z,98059.01
2019-04-25T08:20:20.418Z,98038.73
2019-04-25T08:22:57.147Z,98032.93
2019-04-25T08:25:26.175Z,98037.86
2019-04-25T08:27:58.098Z,98030.91
2019-04-25T08:30:31.401Z,98016.84
2019-04-25T08:33:03.974Z,98024.80
2019-04-25T08:35:36.537Z,98020.83
2019-04-25T08:38:08.592Z,98027.69
2019-04-25T08:40:42.479Z,98030.41
2019-04-25T08:43:15.365Z,98018.45
2019-04-25T08:45:47.564Z,98034.52
2019-04-25T08:48:20.288Z,98029.41
2019-04-25T08:51:03.667Z,98045.02
2019-04-25T08:53:45.144Z,98029.11
2019-04-25T08:56:22.273Z,98048.67
2019-04-25T08:59:04.120Z,98049.72
2019-04-25T09:01:47.646Z,98050.33
2019-04-25T09:04:42.987Z,98051.04
2019-04-25T09:07:15.774Z,98043.13
2019-04-25T09:09:47.840Z,98015.49
2019-04-25T09:12:20.459Z,98019.83
2019-04-25T09:14:54.100Z,98025.63
2019-04-25T09:17:26.241Z,98020.37
2019-04-25T09:19:58.164Z,98021.11
2019-04-25T09:22:30.156Z,98016.25
2019-04-25T09:25:03.748Z,98013.75
2019-04-25T09:27:39.238Z,98015.81
2019-04-25T09:30:11.023Z,98017.27
2019-04-25T09:32:44.529Z,98031.03
2019-04-25T09:35:16.739Z,98032.35
2019-04-25T09:37:48.702Z,98022.66
2019-04-25T09:40:23.991Z,98022.69
2019-04-25T09:42:56.332Z,98017.47
2019-04-25T09:45:37.670Z,98020.23
2019-04-25T09:48:30.801Z,98021.06
2019-04-25T09:51:25.713Z,98018.16
2019-04-25T09:54:03.888Z,98015.88
2019-04-25T09:56:45.141Z,98010.62
2019-04-25T09:59:27.143Z,98000.36
2019-04-25T10:01:54.287Z,98008.23
2019-04-25T10:04:26.258Z,98004.25
2019-04-25T10:06:58.282Z,97996.68
2019-04-25T10:09:33.666Z,98008.41
2019-04-25T10:12:06.150Z,98002.34
2019-04-25T10:15:24.030Z,97992.98
2019-04-25T10:17:56.100Z,98002.45
2019-04-25T10:20:28.280Z,98003.97
2019-04-25T10:23:00.210Z,97994.83
2019-04-25T10:25:33.424Z,97999.95
2019-04-25T10:28:07.086Z,98006.33
2019-04-25T10:30:39.541Z,98012.72
2019-04-25T10:33:11.634Z,98014.47
2019-04-25T10:35:52.088Z,98019.69
2019-04-25T10:38:17.485Z,98036.00
2019-04-25T10:40:50.331Z,98018.86
2019-04-25T10:43:23.947Z,98023.27
2019-04-25T10:45:56.522Z,98016.13
2019-04-25T10:48:28.588Z,98019.52
2019-04-25T10:51:00.903Z,98013.78
2019-04-25T10:53:33.878Z,98007.27
2019-04-25T10:56:06.158Z,98005.93
2019-04-25T10:58:38.217Z,98015.42
2019-04-25T11:01:10.646Z,98007.48
2019-04-25T11:03:55.756Z,98002.70
2019-04-25T11:06:29.461Z,97995.05
2019-04-25T11:09:03.383Z,97994.08
2019-04-25T11:11:37.368Z,97998.05
2019-04-25T11:14:09.493Z,98007.27
2019-04-25T11:16:42.841Z,97999.08
2019-04-25T11:19:15.409Z,97995.21
2019-04-25T11:21:47.728Z,97986.52
2019-04-25T11:24:19.830Z,97999.95
2019-04-25T11:26:51.822Z,98009.17
2019-04-25T11:29:24.149Z,98011.44
2019-04-25T11:31:56.475Z,98013.47
2019-04-25T11:34:28.446Z,98014.04
2019-04-25T11:37:01.036Z,98007.66
2019-04-25T11:39:41.813Z,98007.45
2019-04-25T11:42:16.066Z,98012.34
2019-04-25T11:44:48.089Z,98016.43
2019-04-25T11:47:20.794Z,98022.25
2019-04-25T11:49:54.604Z,98016.46
2019-04-25T11:52:29.985Z,98018.31
2019-04-25T11:55:00.423Z,98014.55
2019-04-25T11:57:32.438Z,98032.28
2019-04-25T12:00:04.892Z,98030.21
2019-04-25T12:02:36.874Z,98029.00
2019-04-25T12:05:08.910Z,98025.39
2019-04-25T12:07:40.924Z,98032.54
2019-04-25T12:10:14.452Z,98038.81
2019-04-25T12:12:47.394Z,98042.48
2019-04-25T12:15:19.475Z,98044.72
2019-04-25T12:17:51.619Z,98039.84
2019-04-25T12:20:24.103Z,98046.41
2019-04-25T12:23:05.935Z,98039.70
2019-04-25T12:25:29.843Z,98034.17
2019-04-25T12:28:02.819Z,98033.06
2019-04-25T12:30:40.080Z,98035.94
2019-04-25T12:33:20.722Z,98033.66
2019-04-25T12:35:43.702Z,98032.08
2019-04-25T12:38:15.911Z,98027.77
2019-04-25T12:40:48.206Z,98033.48
2019-04-25T12:43:23.967Z,98030.91
2019-04-25T12:46:05.695Z,98036.69
2019-04-25T12:48:37.708Z,98030.69
2019-04-25T12:51:09.777Z,98030.52
2019-04-25T12:53:41.769Z,98035.60
2019-04-25T12:56:13.729Z,98038.41
2019-04-25T12:58:45.683Z,98037.09
2019-04-25T13:01:17.705Z,98031.84
2019-04-25T13:03:50.858Z,98028.75
2019-04-25T13:06:23.872Z,98022.45
2019-04-25T13:08:55.900Z,98020.25
2019-04-25T13:11:27.952Z,98023.58
2019-04-25T13:14:00.294Z,98021.43
2019-04-25T13:16:32.269Z,98021.21
2019-04-25T13:19:16.722Z,98015.42
2019-04-25T13:21:38.399Z,98024.81
2019-04-25T13:24:10.550Z,98037.42
2019-04-25T13:26:56.883Z,98026.34
2019-04-25T13:29:53.241Z,98024.64
2019-04-25T13:32:44.118Z,98014.38
2019-04-25T13:35:21.198Z,98018.08
2019-04-25T13:37:53.966Z,98019.98
2019-04-25T13:40:26.068Z,98013.04
2019-04-25T13:42:58.066Z,98009.30
2019-04-25T13:45:30.355Z,98007.02
2019-04-25T13:48:03.357Z,98006.60
2019-04-25T13:50:36.141Z,98007.06
2019-04-25T13:53:08.126Z,98007.13
2019-04-25T13:55:40.506Z,98016.03
2019-04-25T13:58:14.409Z,98004.11
2019-04-25T14:00:47.422Z,98007.78
2019-04-25T14:03:19.566Z,98006.09
2019-04-25T14:05:51.630Z,98014.82
2019-04-25T14:08:24.714Z,98005.16
2019-04-25T14:10:57.359Z,98002.03
2019-04-25T14:13:30.626Z,98004.67
2019-04-25T14:16:30.759Z,97990.89
2019-04-25T14:19:21.880Z,98008.26
2019-04-25T14:21:56.947Z,98005.25
2019-04-25T14:24:30.765Z,98003.39
2019-04-25T14:27:03.690Z,97993.36
2019-04-25T14:29:36.044Z,97996.57
2019-04-25T14:32:09.821Z,97988.27
2019-04-25T14:34:43.256Z,97997.39
2019-04-25T14:37:15.385Z,97993.80
2019-04-25T14:39:47.394Z,97994.48
2019-04-25T14:42:19.404Z,97991.08
2019-04-25T14:44:51.383Z,98004.73
2019-04-25T14:47:24.392Z,97990.50
2019-04-25T14:49:56.667Z,97989.37
2019-04-25T14:52:28.682Z,97991.66
2019-04-25T14:55:18.695Z,98000.23
2019-04-25T14:57:51.129Z,97986.00
2019-04-25T15:00:30.411Z,97980.60
2019-04-25T15:03:02.464Z,97985.20
2019-04-25T15:05:34.955Z,97983.81
2019-04-25T15:08:07.526Z,97990.26
2019-04-25T15:10:40.018Z,97991.44
2019-04-25T15:13:12.245Z,97984.92
2019-04-25T15:15:44.284Z,97978.50
2019-04-25T15:18:16.362Z,97981.77
2019-04-25T15:20:48.342Z,97983.46
2019-04-25T15:23:21.046Z,97979.39
2019-04-25T15:25:53.113Z,97978.21
2019-04-25T15:28:25.126Z,97977.53
2019-04-25T15:30:57.212Z,97977.69
2019-04-25T15:33:30.252Z,97972.78
2019-04-25T15:36:17.347Z,97961.59
2019-04-25T15:38:58.196Z,97969.55
2019-04-25T15:41:48.512Z,97972.58
2019-04-25T15:44:39.653Z,97967.02
2019-04-25T15:47:15.111Z,97967.53
2019-04-25T15:49:47.182Z,97970.95
2019-04-25T15:52:19.159Z,97964.14
2019-04-25T15:54:51.268Z,97969.56
2019-04-25T15:57:23.271Z,97965.52
2019-04-25T15:59:55.370Z,97966.04
2019-04-25T16:02:28.785Z,97961.99
2019-04-25T16:05:01.208Z,97961.16
2019-04-25T16:07:33.781Z,97963.16
2019-04-25T16:10:06.819Z,97964.56
2019-04-25T16:12:38.856Z,97969.82
2019-04-25T16:15:11.102Z,97962.55
2019-04-25T16:17:44.576Z,97957.98
2019-04-25T16:20:16.736Z,97969.68
2019-04-25T16:22:48.972Z,97963.94
2019-04-25T16:25:22.944Z,97959.84
2019-04-25T16:27:55.036Z,97962.05
2019-04-25T16:30:32.449Z,97969.33
2019-04-25T16:33:04.682Z,97967.66
2019-04-25T16:35:37.818Z,97966.14
2019-04-25T16:38:10.178Z,97968.33
2019-04-25T16:40:42.150Z,97962.92
2019-04-25T16:43:17.057Z,97962.25
2019-04-25T16:45:49.133Z,97967.31
2019-04-25T16:48:21.386Z,97964.73
2019-04-25T16:50:53.386Z,97966.91
2019-04-25T16:53:25.408Z,97969.09
2019-04-25T16:55:57.422Z,97966.56
2019-04-25T16:58:29.744Z,97970.42
2019-04-25T17:01:09.622Z,97965.17
2019-04-25T17:03:42.329Z,97970.91
2019-04-25T17:06:14.403Z,97977.50
2019-04-25T17:08:47.522Z,97973.27
2019-04-25T17:11:19.838Z,97974.41
2019-04-25T17:14:01.560Z,97979.42
2019-04-25T17:16:42.360Z,97983.92
2019-04-25T17:19:18.702Z,97984.92
2019-04-25T17:21:50.778Z,97988.93
2019-04-25T17:24:22.706Z,97993.27
2019-04-25T17:26:54.728Z,97990.86
2019-04-25T17:29:26.856Z,97990.83
2019-04-25T17:32:10.923Z,97997.22
2019-04-25T17:34:59.504Z,97994.94
2019-04-25T17:37:41.056Z,97998.79
2019-04-25T17:40:17.020Z,97994.91
2019-04-25T17:42:49.063Z,97997.52
2019-04-25T17:45:25.915Z,98002.16
2019-04-25T17:47:57.877Z,98003.78
2019-04-25T17:50:30.096Z,98009.16
2019-04-25T17:53:02.174Z,98012.41
2019-04-25T17:55:35.359Z,98018.42
2019-04-25T17:58:07.370Z,98023.48
2019-04-25T18:00:42.049Z,98024.86
2019-04-25T18:03:14.309Z,98023.17
2019-04-25T18:05:46.403Z,98024.94
2019-04-25T18:08:18.583Z,98030.03
2019-04-25T18:10:51.060Z,98029.63
2019-04-25T18:13:23.053Z,98032.69
2019-04-25T18:16:04.054Z,98036.41
2019-04-25T18:18:58.852Z,98039.34
2019-04-25T18:21:30.972Z,98041.59
2019-04-25T18:24:27.958Z,98044.16
2019-04-25T18:27:04.923Z,98046.62
2019-04-25T18:29:39.506Z,98048.95
2019-04-25T18:32:11.584Z,98050.30
2019-04-25T18:34:58.722Z,98049.33
2019-04-25T18:38:07.568Z,98052.03
2019-04-25T18:40:47.334Z,98061.95
2019-04-25T18:43:23.442Z,98063.76
2019-04-25T18:46:00.011Z,98065.73
2019-04-25T18:48:32.068Z,98065.68
2019-04-25T18:51:04.061Z,98072.78
2019-04-25T18:54:10.008Z,98071.34
2019-04-25T18:56:57.462Z,98071.55
2019-04-25T18:59:48.349Z,98072.56
2019-04-25T19:02:46.199Z,98072.63
2019-04-25T19:05:33.590Z,98075.25
2019-04-25T19:08:06.366Z,98073.34
2019-04-25T19:10:39.497Z,98067.24
2019-04-25T19:13:12.719Z,98069.03
2019-04-25T19:15:45.220Z,98069.23
2019-04-25T19:18:17.318Z,98073.67
2019-04-25T19:20:49.408Z,98064.83
2019-04-25T19:23:21.418Z,98075.09
2019-04-25T19:25:53.406Z,98080.00
2019-04-25T19:28:25.505Z,98080.67
2019-04-25T19:30:57.652Z,98078.08
2019-04-25T19:33:35.815Z,98084.52
2019-04-25T19:36:03.350Z,98082.55
2019-04-25T19:38:35.291Z,98082.55
2019-04-25T19:41:15.839Z,98085.94
2019-04-25T19:44:01.386Z,98074.25
2019-04-25T19:46:41.465Z,98080.19
2019-04-25T19:49:13.874Z,98079.61
2019-04-25T19:51:45.849Z,98077.66
2019-04-25T19:54:17.979Z,98084.28
2019-04-25T19:56:50.350Z,98084.61
2019-04-25T19:59:23.642Z,98087.05
2019-04-25T20:01:57.558Z,98094.09
2019-04-25T20:04:53.196Z,98086.55
2019-04-25T20:07:31.107Z,98086.75
2019-04-25T20:10:11.221Z,98082.20
2019-04-25T20:12:50.510Z,98083.87
2019-04-25T20:15:21.788Z,98080.92
2019-04-25T20:17:54.198Z,98086.84
2019-04-25T20:20:26.380Z,98093.70
2019-04-25T20:22:58.433Z,98086.42
2019-04-25T20:25:30.833Z,98084.77
2019-04-25T20:28:02.826Z,98080.52
2019-04-25T20:30:34.846Z,98079.95
2019-04-25T20:33:07.820Z,98084.28
2019-04-25T20:35:40.272Z,98086.13
2019-04-25T20:38:12.748Z,98082.55
2019-04-25T20:40:45.352Z,98084.67
2019-04-25T20:43:18.462Z,98081.75
2019-04-25T20:45:50.480Z,98081.30
2019-04-25T20:48:22.560Z,98081.59
2019-04-25T20:50:54.599Z,98084.28
2019-04-25T20:53:26.688Z,98083.22
2019-04-25T20:55:58.652Z,98082.25
2019-04-25T20:58:31.083Z,98083.37
2019-04-25T21:01:04.061Z,98077.41
2019-04-25T21:03:36.552Z,98078.17
2019-04-25T21:06:15.209Z,98077.45
2019-04-25T21:08:47.185Z,98078.17
2019-04-25T21:11:19.159Z,98074.84
2019-04-25T21:14:08.476Z,98078.39
2019-04-25T21:17:02.949Z,98074.13
2019-04-25T21:19:38.064Z,98074.13
2019-04-25T21:22:10.872Z,98069.40
2019-04-25T21:24:42.849Z,98070.45
2019-04-25T21:27:14.918Z,98066.46
2019-04-25T21:29:46.958Z,98067.92
2019-04-25T21:32:20.875Z,98069.00
2019-04-25T21:34:53.111Z,98063.89
2019-04-25T21:37:26.181Z,98071.67
2019-04-25T21:40:08.274Z,98068.39
2019-04-25T21:42:51.579Z,98063.02
2019-04-25T21:45:24.801Z,98067.55
2019-04-25T21:47:57.087Z,98059.86
2019-04-25T21:50:29.394Z,98058.14
2019-04-25T21:53:01.773Z,98064.86
2019-04-25T21:55:34.192Z,98058.98
2019-04-25T21:58:06.583Z,98056.89
2019-04-25T22:01:14.408Z,98059.71
2019-04-25T22:03:46.885Z,98068.23
2019-04-25T22:06:19.176Z,98063.08
2019-04-25T22:08:51.276Z,98067.59
2019-04-25T22:11:23.501Z,98065.19
2019-04-25T22:13:56.604Z,98058.70
2019-04-25T22:16:30.295Z,98057.63
2019-04-25T22:19:02.556Z,98063.39
2019-04-25T22:21:38.199Z,98061.78
2019-04-25T22:24:13.780Z,98059.98
2019-04-25T22:26:42.333Z,98062.72
2019-04-25T22:29:14.724Z,98064.08
2019-04-25T22:32:03.174Z,98055.69
2019-04-25T22:34:52.098Z,98058.88
2019-04-25T22:37:17.493Z,98050.33
2019-04-25T22:39:50.212Z,98055.59
2019-04-25T22:42:22.412Z,98046.84
2019-04-25T22:44:54.635Z,98051.97
2019-04-25T22:47:26.619Z,98048.95
2019-04-25T22:49:58.586Z,98052.13
2019-04-25T22:52:31.083Z,98046.03
2019-04-25T22:55:04.253Z,98037.72
2019-04-25T22:57:36.610Z,98038.95
2019-04-25T23:00:12.390Z,98040.31
2019-04-25T23:02:57.034Z,98034.45
2019-04-25T23:05:51.468Z,98034.33
2019-04-25T23:08:23.728Z,98029.81
2019-04-25T23:10:55.716Z,98031.89
2019-04-25T23:13:27.774Z,98030.92
2019-04-25T23:16:00.302Z,98022.50
2019-04-25T23:18:33.322Z,98023.23
2019-04-25T23:21:06.689Z,98016.40
2019-04-25T23:23:38.830Z,98018.12
2019-04-25T23:26:33.072Z,98019.80
2019-04-25T23:29:06.123Z,98028.84
2019-04-25T23:31:38.910Z,98025.19
2019-04-25T23:34:11.258Z,98022.15
2019-04-25T23:36:43.294Z,98024.84
2019-04-25T23:39:15.456Z,98024.44
2019-04-25T23:41:47.519Z,98024.56
2019-04-25T23:44:19.499Z,98020.41
2019-04-25T23:46:51.821Z,98013.70
2019-04-25T23:49:23.851Z,98013.46
2019-04-25T23:51:56.122Z,98017.35
2019-04-25T23:54:28.129Z,98010.76
2019-04-25T23:57:00.839Z,98013.76
2019-04-25T23:59:32.849Z,98003.27
